Time;durP1;ratioP1;P1;durP2;ratioP2;P2;SDS_P1;SDS_P2;PMS_P1;PMS_P2;Temp;Humidity;BMP_temperature;BMP_pressure;BME280_temperature;BME280_humidity;BME280_pressure;Samples;Min_cycle;Max_cycle;Signal;HPM_P1;HPM_P2
2022/05/16 00:01:26;;;;;;;12.48;8.63;;;18.60;73.70;;;;;;5053578;28;20025;-15
2022/05/16 00:03:52;;;;;;;10.80;8.15;;;18.60;73.70;;;;;;5053238;28;20483;-16
2022/05/16 00:06:18;;;;;;;11.10;8.05;;;18.50;73.80;;;;;;5035210;28;20029;-17
2022/05/16 00:08:45;;;;;;;12.32;9.23;;;18.50;74.10;;;;;;5053525;28;20035;-15
2022/05/16 00:11:10;;;;;;;13.13;10.15;;;18.50;74.50;;;;;;5053351;28;20391;-16
2022/05/16 00:13:36;;;;;;;15.75;9.60;;;18.50;74.60;;;;;;5053541;28;20074;-17
2022/05/16 00:16:03;;;;;;;12.70;10.35;;;18.50;75.00;;;;;;5053138;28;20029;-17
2022/05/16 00:18:28;;;;;;;19.75;11.27;;;18.40;75.40;;;;;;5052840;28;20037;-17
2022/05/16 00:20:54;;;;;;;13.20;9.85;;;18.40;75.30;;;;;;5053379;28;20025;-17
2022/05/16 00:23:21;;;;;;;11.45;8.32;;;18.30;75.40;;;;;;5053301;28;20036;-15
2022/05/16 00:25:46;;;;;;;12.18;7.85;;;18.20;75.30;;;;;;5053050;28;20071;-16
2022/05/16 00:28:12;;;;;;;30.50;17.35;;;18.20;75.50;;;;;;5053097;28;20025;-16
2022/05/16 00:30:38;;;;;;;40.97;21.65;;;18.30;75.70;;;;;;5052656;28;20099;-15
2022/05/16 00:33:04;;;;;;;41.95;20.02;;;18.30;75.80;;;;;;5052672;28;20044;-15
2022/05/16 00:35:30;;;;;;;52.20;25.27;;;18.20;76.00;;;;;;5052899;28;20032;-15
2022/05/16 00:37:56;;;;;;;66.18;31.05;;;18.30;75.80;;;;;;5054425;28;20025;-17
2022/05/16 00:40:22;;;;;;;62.25;30.65;;;18.20;76.10;;;;;;5057009;28;20021;-16
2022/05/16 00:42:48;;;;;;;58.00;30.20;;;18.20;76.10;;;;;;5039282;28;20099;-16
2022/05/16 00:45:17;;;;;;;79.60;36.95;;;18.10;76.20;;;;;;5057291;28;20029;-15
2022/05/16 00:47:43;;;;;;;57.60;28.27;;;18.20;76.30;;;;;;5057188;28;20100;-17
2022/05/16 00:50:11;;;;;;;55.13;27.20;;;18.10;76.50;;;;;;5056662;28;20132;-15
2022/05/16 00:52:41;;;;;;;48.90;25.02;;;18.10;76.40;;;;;;5056622;28;20033;-16
2022/05/16 00:55:33;;;;;;;48.75;22.88;;;18.00;76.40;;;;;;5057088;28;20032;-15
2022/05/16 00:58:07;;;;;;;47.83;22.38;;;17.90;76.40;;;;;;5056407;28;20411;-16
2022/05/16 01:00:37;;;;;;;46.85;24.02;;;18.00;76.40;;;;;;5056518;28;20037;-17
2022/05/16 01:06:00;;;;;;;49.47;23.63;;;18.00;76.70;;;;;;5056963;28;20075;-16
2022/05/16 01:08:30;;;;;;;50.25;24.25;;;17.90;76.40;;;;;;5056294;28;20017;-15
2022/05/16 01:11:01;;;;;;;39.70;21.75;;;17.90;76.60;;;;;;5056745;28;20468;-15
2022/05/16 01:13:30;;;;;;;30.40;16.45;;;17.90;76.70;;;;;;5056798;28;20021;-15
2022/05/16 01:15:57;;;;;;;32.25;17.70;;;17.80;76.80;;;;;;5056336;28;20479;-17
2022/05/16 01:18:24;;;;;;;31.25;16.30;;;17.80;77.00;;;;;;5056050;28;20426;-16
2022/05/16 01:21:17;;;;;;;26.75;15.15;;;17.80;77.00;;;;;;5056627;28;20029;-15
2022/05/16 01:23:55;;;;;;;22.38;12.85;;;17.70;77.20;;;;;;5056638;28;20033;-16
2022/05/16 01:26:24;;;;;;;23.42;13.82;;;17.70;77.30;;;;;;5055950;28;20029;-16
2022/05/16 01:28:52;;;;;;;22.90;13.90;;;17.70;77.30;;;;;;5056250;28;20021;-15
2022/05/16 01:31:19;;;;;;;19.50;11.45;;;17.70;77.30;;;;;;5056523;28;20033;-16
2022/05/16 01:33:45;;;;;;;15.13;9.75;;;17.60;77.40;;;;;;5055886;28;20132;-17
2022/05/16 01:36:11;;;;;;;16.25;10.25;;;17.70;77.60;;;;;;5056031;28;20025;-15
2022/05/16 01:38:39;;;;;;;19.13;10.93;;;17.70;77.50;;;;;;5038134;28;20531;-15
2022/05/16 01:41:08;;;;;;;16.45;10.38;;;17.70;77.60;;;;;;5056557;28;20021;-16
2022/05/16 01:43:38;;;;;;;23.95;12.27;;;17.70;77.50;;;;;;5056242;28;20021;-17
2022/05/16 01:46:06;;;;;;;15.10;10.98;;;17.60;77.80;;;;;;5056142;28;20163;-16
2022/05/16 01:48:34;;;;;;;16.50;9.73;;;17.60;77.90;;;;;;5055104;28;20460;-16
2022/05/16 01:51:05;;;;;;;15.95;10.32;;;17.50;77.80;;;;;;5055280;28;20476;-17
2022/05/16 01:53:32;;;;;;;13.15;9.48;;;17.50;77.70;;;;;;5055740;28;20025;-15
2022/05/16 01:55:58;;;;;;;14.82;10.07;;;17.50;77.90;;;;;;5055845;28;20040;-15
2022/05/16 01:58:25;;;;;;;17.33;10.85;;;17.50;77.80;;;;;;5055488;28;20033;-15
2022/05/16 02:00:52;;;;;;;15.48;10.57;;;17.50;78.00;;;;;;5056037;28;20468;-15
2022/05/16 02:03:18;;;;;;;14.85;11.02;;;17.50;77.90;;;;;;5055732;28;20121;-15
2022/05/16 02:05:45;;;;;;;13.23;10.25;;;17.50;77.90;;;;;;5055649;28;20033;-15
2022/05/16 02:08:13;;;;;;;14.57;10.00;;;17.50;77.90;;;;;;5055808;28;20025;-15
2022/05/16 02:10:40;;;;;;;14.98;9.52;;;17.50;78.10;;;;;;5055814;28;20105;-16
2022/05/16 02:13:06;;;;;;;13.48;9.90;;;17.50;78.00;;;;;;5055599;28;20017;-17
2022/05/16 02:15:35;;;;;;;13.82;10.27;;;17.50;78.10;;;;;;5055652;28;20025;-15
2022/05/16 02:18:01;;;;;;;16.30;11.63;;;17.50;78.10;;;;;;5055107;28;20029;-15
2022/05/16 02:20:28;;;;;;;16.23;12.20;;;17.50;78.20;;;;;;5055097;28;20039;-16
2022/05/16 02:25:43;;;;;;;18.98;10.77;;;17.50;78.60;;;;;;5055581;28;20098;-15
2022/05/16 02:28:11;;;;;;;18.65;12.68;;;17.50;78.30;;;;;;5055243;28;20028;-17
2022/05/16 02:30:38;;;;;;;14.90;10.20;;;17.40;78.90;;;;;;5055009;28;20033;-17
2022/05/16 02:33:04;;;;;;;17.95;12.52;;;17.40;78.50;;;;;;5054613;28;20501;-15
2022/05/16 02:35:32;;;;;;;26.30;18.27;;;17.50;78.70;;;;;;5054950;28;20041;-15
2022/05/16 02:37:58;;;;;;;17.27;12.82;;;17.50;78.90;;;;;;5054977;28;20071;-16
2022/05/16 02:40:26;;;;;;;26.42;13.07;;;17.50;78.80;;;;;;5054567;28;20389;-16
2022/05/16 02:42:52;;;;;;;22.13;14.73;;;17.50;78.80;;;;;;5054772;28;20036;-16
2022/05/16 02:45:18;;;;;;;19.13;12.35;;;17.50;78.80;;;;;;5054712;28;20103;-16
2022/05/16 02:47:44;;;;;;;18.40;13.10;;;17.50;78.80;;;;;;5054974;28;20112;-16
2022/05/16 02:50:11;;;;;;;19.15;13.25;;;17.40;78.90;;;;;;5054451;28;20431;-17
2022/05/16 02:52:37;;;;;;;21.38;14.95;;;17.40;78.80;;;;;;5054342;28;20543;-17
2022/05/16 02:55:04;;;;;;;21.45;14.65;;;17.40;79.20;;;;;;5054963;28;20116;-15
2022/05/16 02:57:30;;;;;;;28.35;16.75;;;17.40;79.00;;;;;;5054480;28;20032;-17
2022/05/16 02:59:56;;;;;;;35.30;21.98;;;17.40;79.00;;;;;;5054266;28;20017;-16
2022/05/16 03:02:22;;;;;;;36.88;20.23;;;17.40;80.70;;;;;;5054040;28;20060;-17
2022/05/16 03:04:49;;;;;;;30.02;20.45;;;17.30;80.50;;;;;;5054187;28;20511;-16
2022/05/16 03:07:15;;;;;;;27.80;19.13;;;17.30;80.30;;;;;;5054783;28;20028;-17
2022/05/16 03:09:41;;;;;;;28.23;19.55;;;17.20;80.60;;;;;;5054237;28;20033;-15
2022/05/16 03:12:08;;;;;;;26.10;18.75;;;17.20;81.00;;;;;;5054192;28;20018;-16
2022/05/16 03:14:35;;;;;;;26.02;18.77;;;17.10;80.80;;;;;;5054204;28;20061;-16
2022/05/16 03:17:03;;;;;;;31.83;21.85;;;17.10;80.30;;;;;;5054674;28;20357;-17
2022/05/16 03:19:30;;;;;;;22.23;15.82;;;17.00;79.90;;;;;;5053889;28;20488;-15
2022/05/16 03:21:56;;;;;;;21.15;15.15;;;17.00;80.40;;;;;;5054299;28;20043;-16
2022/05/16 03:24:22;;;;;;;20.25;12.68;;;17.00;80.10;;;;;;5053786;28;20033;-15
2022/05/16 03:26:48;;;;;;;22.63;15.77;;;17.00;79.80;;;;;;5053873;28;20021;-16
2022/05/16 03:29:16;;;;;;;19.33;14.63;;;17.00;79.80;;;;;;5054101;28;20029;-15
2022/05/16 03:31:42;;;;;;;22.05;16.13;;;17.00;79.70;;;;;;5053819;28;20446;-15
2022/05/16 03:34:10;;;;;;;17.95;13.52;;;17.00;79.90;;;;;;5053691;28;20099;-15
2022/05/16 03:36:37;;;;;;;19.30;14.45;;;17.00;79.50;;;;;;5053496;28;20036;-17
2022/05/16 03:41:48;;;;;;;22.75;15.02;;;17.00;79.60;;;;;;5053822;28;20051;-16
2022/05/16 03:44:16;;;;;;;18.83;13.98;;;17.00;79.70;;;;;;5053346;28;20079;-16
2022/05/16 03:46:42;;;;;;;20.40;13.93;;;17.00;79.60;;;;;;5035840;28;20056;-15
2022/05/16 03:49:08;;;;;;;19.70;15.15;;;17.00;79.30;;;;;;5053881;28;20063;-17
2022/05/16 03:51:34;;;;;;;19.27;14.02;;;17.00;79.30;;;;;;5053747;28;20057;-16
2022/05/16 03:54:00;;;;;;;21.55;13.77;;;17.00;79.40;;;;;;5053525;28;20021;-17
2022/05/16 03:56:28;;;;;;;20.33;12.90;;;17.00;79.20;;;;;;5053252;28;20388;-16
2022/05/16 03:58:56;;;;;;;17.65;13.15;;;17.00;79.10;;;;;;5053650;28;20017;-16
2022/05/16 04:01:23;;;;;;;20.13;14.68;;;17.00;78.90;;;;;;5053358;28;20099;-17
2022/05/16 04:03:50;;;;;;;20.63;13.00;;;17.00;79.00;;;;;;5053486;28;20040;-16
2022/05/16 04:06:17;;;;;;;22.27;15.30;;;16.90;79.20;;;;;;5053106;28;20132;-15
2022/05/16 04:08:44;;;;;;;22.83;15.82;;;17.00;79.10;;;;;;5053528;28;20531;-16
2022/05/16 04:11:14;;;;;;;21.17;15.82;;;17.00;79.30;;;;;;5053950;28;20029;-15
2022/05/16 04:13:42;;;;;;;22.15;14.55;;;17.00;79.50;;;;;;5052902;28;20084;-16
2022/05/16 04:16:08;;;;;;;22.95;15.90;;;17.00;79.40;;;;;;5053450;28;20086;-16
2022/05/16 04:18:35;;;;;;;21.25;15.68;;;17.00;79.10;;;;;;5052848;28;20496;-16
2022/05/16 04:21:01;;;;;;;22.65;17.05;;;17.00;79.40;;;;;;5053101;28;20033;-15
2022/05/16 04:23:27;;;;;;;22.45;16.05;;;17.00;79.50;;;;;;5053043;28;20024;-16
2022/05/16 04:25:52;;;;;;;20.42;14.50;;;17.00;79.40;;;;;;5051841;28;20036;-16
2022/05/16 04:28:18;;;;;;;23.05;15.20;;;17.10;79.40;;;;;;5052900;28;20056;-16
2022/05/16 04:30:45;;;;;;;28.35;20.77;;;17.20;79.40;;;;;;5052979;28;20476;-16
2022/05/16 04:33:11;;;;;;;20.05;12.93;;;17.20;79.50;;;;;;5052779;28;20064;-16
2022/05/16 04:35:37;;;;;;;22.08;13.30;;;17.30;79.20;;;;;;5052940;28;20100;-15
2022/05/16 04:38:04;;;;;;;27.98;19.27;;;17.40;79.20;;;;;;5052979;28;20108;-14
2022/05/16 04:40:31;;;;;;;25.98;16.27;;;17.50;80.90;;;;;;5052749;28;20021;-16
2022/05/16 04:42:57;;;;;;;21.30;15.23;;;17.60;80.40;;;;;;5052850;28;20075;-16
2022/05/16 04:45:27;;;;;;;21.08;14.80;;;17.60;80.20;;;;;;5052903;28;20031;-16
2022/05/16 04:47:58;;;;;;;22.42;15.27;;;17.70;80.40;;;;;;5053109;28;20025;-15
2022/05/16 04:50:31;;;;;;;21.70;14.35;;;17.90;80.00;;;;;;5052581;28;20036;-17
2022/05/16 04:52:58;;;;;;;;;;;17.90;79.30;;;;;;5053718;28;20103;-14
2022/05/16 04:55:26;;;;;;;21.42;15.45;;;18.00;81.50;;;;;;5052758;28;19909;-14
2022/05/16 04:57:52;;;;;;;23.95;16.40;;;18.10;79.90;;;;;;5034845;28;20544;-16
2022/05/16 05:00:20;;;;;;;25.80;18.58;;;18.20;79.40;;;;;;5052503;28;20021;-15
2022/05/16 05:02:47;;;;;;;29.58;18.48;;;18.30;78.80;;;;;;5052628;28;20021;-15
2022/05/16 05:05:15;;;;;;;22.35;14.07;;;18.40;78.70;;;;;;5052884;28;20029;-15
2022/05/16 05:07:42;;;;;;;22.50;16.20;;;18.50;78.30;;;;;;5052956;28;20112;-15
2022/05/16 05:15:39;;;;;;;18.85;13.75;;;18.70;77.80;;;;;;5053210;28;20086;-15
2022/05/16 05:18:06;;;;;;;21.33;15.43;;;18.90;78.70;;;;;;5035117;28;20415;-14
2022/05/16 05:20:33;;;;;;;24.40;17.23;;;18.90;78.10;;;;;;5052202;28;20029;-15
2022/05/16 05:23:00;;;;;;;35.13;21.70;;;19.10;78.70;;;;;;5052487;28;20103;-16
2022/05/16 05:25:27;;;;;;;24.67;17.85;;;19.20;79.80;;;;;;5056358;28;20437;-15
2022/05/16 05:27:53;;;;;;;23.70;16.13;;;19.30;78.70;;;;;;5056527;28;20048;-16
2022/05/16 05:30:24;;;;;;;28.60;19.95;;;19.40;78.00;;;;;;5055880;28;20116;-15
2022/05/16 05:32:52;;;;;;;23.50;16.83;;;19.60;78.90;;;;;;5056184;28;20077;-14
2022/05/16 05:35:20;;;;;;;29.45;20.30;;;19.70;77.90;;;;;;5056043;28;20104;-15
2022/05/16 05:37:46;;;;;;;24.33;16.05;;;19.80;78.30;;;;;;5038221;28;20029;-15
2022/05/16 05:40:14;;;;;;;22.65;14.95;;;19.90;77.80;;;;;;5056084;28;20028;-14
2022/05/16 05:42:41;;;;;;;32.97;20.08;;;20.00;77.10;;;;;;5055901;28;20029;-16
2022/05/16 05:45:09;;;;;;;33.33;21.77;;;20.20;77.00;;;;;;5056154;28;20076;-16
2022/05/16 05:47:36;;;;;;;28.88;19.85;;;20.30;77.00;;;;;;5056145;28;20392;-16
2022/05/16 05:50:02;;;;;;;36.42;21.00;;;20.40;77.10;;;;;;5055962;28;20041;-15
2022/05/16 05:52:28;;;;;;;30.38;18.83;;;20.50;77.10;;;;;;5055801;28;20051;-15
2022/05/16 05:54:56;;;;;;;28.83;20.60;;;20.60;76.80;;;;;;5056187;28;20033;-14
2022/05/16 05:57:25;;;;;;;29.25;20.88;;;20.70;76.80;;;;;;5055663;28;20040;-15
2022/05/16 05:59:52;;;;;;;35.70;20.92;;;20.80;76.10;;;;;;5038076;28;20024;-15
2022/05/16 06:02:19;;;;;;;33.17;22.05;;;20.90;76.70;;;;;;5055616;28;20035;-16
2022/05/16 06:04:45;;;;;;;31.83;21.95;;;21.10;76.60;;;;;;5055425;28;20021;-15
2022/05/16 06:07:11;;;;;;;28.85;20.45;;;21.20;75.90;;;;;;5038032;28;20108;-15
2022/05/16 06:09:37;;;;;;;26.27;17.38;;;21.30;75.50;;;;;;5055436;28;20025;-16
2022/05/16 06:12:05;;;;;;;30.05;21.20;;;21.40;75.40;;;;;;5055693;28;20090;-14
2022/05/16 06:14:32;;;;;;;27.67;16.48;;;21.60;75.00;;;;;;5055477;28;20111;-15
2022/05/16 06:16:58;;;;;;;28.00;19.42;;;21.80;74.80;;;;;;5038122;28;20029;-16
2022/05/16 06:19:25;;;;;;;31.50;21.15;;;21.90;74.30;;;;;;5055151;28;20431;-16
2022/05/16 06:21:52;;;;;;;27.85;18.38;;;22.10;73.90;;;;;;5055382;28;20025;-16
2022/05/16 06:27:03;;;;;;;28.25;18.10;;;22.50;73.20;;;;;;5055465;28;20075;-16
2022/05/16 06:29:30;;;;;;;32.03;19.77;;;22.70;72.90;;;;;;5054901;28;20115;-15
2022/05/16 06:31:56;;;;;;;21.10;14.38;;;22.90;71.40;;;;;;5037241;28;20021;-15
2022/05/16 06:34:22;;;;;;;23.40;16.08;;;23.00;71.70;;;;;;5054417;28;20109;-15
2022/05/16 06:36:51;;;;;;;20.40;14.45;;;23.10;71.40;;;;;;5054382;28;20055;-15
2022/05/16 06:39:17;;;;;;;27.55;18.58;;;23.30;71.10;;;;;;5055082;28;20029;-14
2022/05/16 06:41:43;;;;;;;25.23;17.48;;;23.40;70.60;;;;;;5054731;28;20032;-14
2022/05/16 06:44:14;;;;;;;21.08;15.20;;;23.60;70.60;;;;;;5054727;28;20155;-14
2022/05/16 06:46:41;;;;;;;19.70;14.35;;;23.80;70.00;;;;;;5054798;28;20060;-14
2022/05/16 06:49:07;;;;;;;24.55;16.13;;;24.00;69.70;;;;;;5054913;28;20037;-14
2022/05/16 06:51:33;;;;;;;22.70;16.17;;;24.20;68.10;;;;;;5054869;28;20079;-14
2022/05/16 06:53:59;;;;;;;23.77;15.93;;;24.30;67.20;;;;;;5054833;28;20506;-14
2022/05/16 06:56:26;;;;;;;20.98;14.60;;;24.40;66.20;;;;;;5054432;28;20025;-14
2022/05/16 06:58:52;;;;;;;20.38;14.25;;;24.50;66.00;;;;;;5055179;28;20021;-14
2022/05/16 07:01:18;;;;;;;17.10;12.93;;;24.70;65.80;;;;;;5054427;28;20024;-15
2022/05/16 07:03:44;;;;;;;23.27;15.57;;;24.90;65.90;;;;;;5054333;28;20033;-15
2022/05/16 07:06:11;;;;;;;15.52;11.50;;;25.10;64.30;;;;;;5054533;28;20029;-14
2022/05/16 07:08:37;;;;;;;18.40;14.32;;;25.30;64.00;;;;;;5054393;28;20037;-14
2022/05/16 07:11:03;;;;;;;17.77;12.32;;;25.50;62.70;;;;;;5054623;28;20379;-15
2022/05/16 07:13:29;;;;;;;20.33;12.75;;;25.70;63.20;;;;;;5054163;28;20514;-13
2022/05/16 07:15:56;;;;;;;21.73;14.00;;;26.00;61.70;;;;;;5054479;28;20040;-13
2022/05/16 07:18:23;;;;;;;12.93;10.10;;;26.20;60.40;;;;;;5053902;28;20120;-13
2022/05/16 07:20:49;;;;;;;19.90;13.60;;;26.30;60.50;;;;;;5053979;28;20025;-13
2022/05/16 07:23:16;;;;;;;15.23;11.13;;;26.40;58.90;;;;;;5054120;28;20029;-14
2022/05/16 07:28:27;;;;;;;19.25;13.55;;;26.60;59.10;;;;;;5054115;28;20059;-14
2022/05/16 07:30:53;;;;;;;16.70;12.75;;;26.80;58.80;;;;;;5053750;28;20037;-14
2022/05/16 07:33:20;;;;;;;16.80;13.02;;;26.90;59.00;;;;;;5053566;28;20106;-14
2022/05/16 07:35:50;;;;;;;13.75;9.25;;;27.10;57.10;;;;;;5053969;28;20047;-14
2022/05/16 07:38:17;;;;;;;16.40;12.15;;;27.20;58.40;;;;;;5053724;28;20025;-14
2022/05/16 07:40:43;;;;;;;12.65;9.85;;;27.30;57.10;;;;;;5053974;28;20021;-15
2022/05/16 07:43:09;;;;;;;13.85;10.40;;;27.50;58.00;;;;;;5053584;28;20447;-14
2022/05/16 07:45:35;;;;;;;14.65;9.93;;;27.70;57.00;;;;;;5053762;28;20078;-14
2022/05/16 07:48:03;;;;;;;16.40;11.52;;;27.80;57.10;;;;;;5053044;28;20443;-14
2022/05/16 07:50:36;;;;;;;15.38;11.82;;;27.90;56.70;;;;;;5053483;28;20040;-16
2022/05/16 07:53:03;;;;;;;;;;;27.90;56.30;;;;;;5054266;28;20017;-15
2022/05/16 07:55:28;;;;;;;13.32;10.05;;;28.10;55.50;;;;;;5053821;28;19905;-15
2022/05/16 07:57:54;;;;;;;14.25;10.95;;;28.20;55.70;;;;;;5053398;28;20036;-15
2022/05/16 08:00:23;;;;;;;13.70;10.93;;;28.30;55.60;;;;;;5053141;28;20032;-16
2022/05/16 08:02:51;;;;;;;12.18;8.65;;;28.50;54.00;;;;;;5053353;28;20020;-14
2022/05/16 08:05:18;;;;;;;11.00;8.68;;;28.80;54.70;;;;;;5053181;28;20025;-15
2022/05/16 08:10:29;;;;;;;15.32;9.25;;;29.30;52.90;;;;;;5053055;28;20044;-16
2022/05/16 08:13:00;;;;;;;12.60;8.90;;;29.50;53.10;;;;;;5035431;28;20033;-15
2022/05/16 08:15:27;;;;;;;14.88;9.93;;;29.70;51.90;;;;;;5053635;28;20025;-14
2022/05/16 08:17:54;;;;;;;15.75;9.63;;;29.80;51.00;;;;;;5053110;28;20029;-16
2022/05/16 08:20:21;;;;;;;12.73;9.68;;;30.00;51.20;;;;;;5052714;28;20017;-15
2022/05/16 08:22:47;;;;;;;12.15;8.88;;;30.10;50.50;;;;;;5035862;28;20391;-15
2022/05/16 08:25:14;;;;;;;10.88;8.30;;;30.30;50.60;;;;;;5053055;28;20028;-15
2022/05/16 08:27:41;;;;;;;12.30;8.70;;;30.50;49.50;;;;;;5052989;28;20056;-14
2022/05/16 08:30:11;;;;;;;11.07;7.82;;;30.80;49.40;;;;;;5053054;28;20459;-14
2022/05/16 08:32:37;;;;;;;11.40;7.40;;;30.90;49.50;;;;;;5052885;28;20164;-16
2022/05/16 08:35:07;;;;;;;11.38;7.75;;;31.00;49.00;;;;;;5053045;28;20511;-16
2022/05/16 08:40:20;;;;;;;11.63;7.97;;;31.30;48.20;;;;;;5052803;28;20052;-14
2022/05/16 08:42:58;;;;;;;11.30;8.18;;;31.30;48.30;;;;;;5053123;28;20099;-14
2022/05/16 08:45:36;;;;;;;11.85;8.23;;;31.40;48.00;;;;;;5053195;28;20025;-14
2022/05/16 08:48:09;;;;;;;14.00;8.23;;;31.60;47.10;;;;;;5052822;28;20025;-14
2022/05/16 08:50:50;;;;;;;12.05;8.65;;;31.90;46.20;;;;;;5052373;28;20492;-15
2022/05/16 08:53:41;;;;;;;12.30;8.77;;;32.10;46.20;;;;;;5053202;28;20027;-14
2022/05/16 08:56:16;;;;;;;13.38;10.20;;;32.30;46.30;;;;;;5052936;28;20045;-14
2022/05/16 08:58:57;;;;;;;12.60;9.30;;;32.40;45.90;;;;;;5053809;28;20033;-14
2022/05/16 09:01:40;;;;;;;11.00;8.52;;;32.60;46.10;;;;;;5056656;28;20021;-14
2022/05/16 09:04:09;;;;;;;;;;;32.60;45.70;;;;;;5057205;28;20099;-13
2022/05/16 09:06:43;;;;;;;12.05;8.07;;;32.30;44.10;;;;;;5056748;28;19908;-14
2022/05/16 09:09:21;;;;;;;9.52;7.65;;;32.50;46.00;;;;;;5056880;28;20120;-13
2022/05/16 09:12:14;;;;;;;12.27;9.40;;;32.70;46.10;;;;;;5056594;28;20060;-14
2022/05/16 09:14:52;;;;;;;11.68;8.88;;;32.90;44.80;;;;;;5057201;28;20033;-14
2022/05/16 09:17:40;;;;;;;11.80;8.13;;;33.10;44.80;;;;;;5056761;28;20373;-14
2022/05/16 09:20:32;;;;;;;10.52;7.53;;;33.20;45.40;;;;;;5038447;28;20028;-14
2022/05/16 09:23:13;;;;;;;14.32;10.68;;;33.50;45.00;;;;;;5056976;28;20036;-14
2022/05/16 09:26:00;;;;;;;12.98;8.05;;;33.50;44.20;;;;;;5056540;28;20051;-14
2022/05/16 09:28:35;;;;;;;11.80;8.13;;;33.70;44.90;;;;;;5055996;28;20047;-14
2022/05/16 09:31:10;;;;;;;10.95;8.63;;;33.90;42.90;;;;;;5056143;28;20071;-14
2022/05/16 09:33:43;;;;;;;12.35;8.00;;;33.90;42.90;;;;;;5038086;28;20045;-13
2022/05/16 09:36:12;;;;;;;10.65;7.78;;;34.00;43.30;;;;;;5056265;28;20464;-14
2022/05/16 09:38:43;;;;;;;12.57;8.90;;;34.00;43.70;;;;;;5056152;28;20029;-14
2022/05/16 09:41:19;;;;;;;14.63;10.02;;;34.20;42.50;;;;;;5056313;28;20029;-14
2022/05/16 09:44:04;;;;;;;13.02;10.00;;;34.30;42.50;;;;;;5055986;28;20029;-14
2022/05/16 09:46:34;;;;;;;11.35;7.88;;;34.20;42.20;;;;;;5055705;28;20542;-14
2022/05/16 09:49:23;;;;;;;11.57;8.65;;;34.10;42.90;;;;;;5055837;28;20104;-14
2022/05/16 09:51:53;;;;;;;12.70;9.30;;;34.20;42.40;;;;;;5055800;28;20025;-14
2022/05/16 09:54:31;;;;;;;12.55;9.30;;;34.10;43.30;;;;;;5055641;28;20511;-14
2022/05/16 09:57:21;;;;;;;8.98;6.75;;;33.90;43.90;;;;;;5056048;28;20060;-14
2022/05/16 10:00:15;;;;;;;11.43;9.43;;;34.10;44.10;;;;;;5055931;28;20468;-14
2022/05/16 10:02:42;;;;;;;12.30;8.93;;;34.30;43.80;;;;;;5055892;28;20144;-14
2022/05/16 10:05:31;;;;;;;15.30;11.40;;;34.10;43.90;;;;;;5055422;28;20025;-14
2022/05/16 10:08:14;;;;;;;12.18;8.65;;;34.30;43.00;;;;;;5055539;28;20028;-14
2022/05/16 10:10:41;;;;;;;;;;;34.40;43.00;;;;;;5055395;28;20025;-14
2022/05/16 10:13:07;;;;;;;13.18;9.00;;;34.60;42.90;;;;;;5055712;28;19905;-14
2022/05/16 10:15:36;;;;;;;12.25;8.48;;;34.80;41.90;;;;;;5055323;28;20055;-15
2022/05/16 10:18:08;;;;;;;12.68;8.85;;;34.90;42.10;;;;;;5055373;28;20473;-14
2022/05/16 10:20:39;;;;;;;13.50;9.27;;;35.10;41.80;;;;;;5037142;28;20037;-14
2022/05/16 10:23:16;;;;;;;12.60;8.63;;;35.30;42.00;;;;;;5055649;28;20036;-14
2022/05/16 10:25:48;;;;;;;11.70;8.55;;;35.40;41.00;;;;;;5055172;28;20075;-14
2022/05/16 10:28:29;;;;;;;13.05;9.07;;;35.60;41.90;;;;;;5055145;28;20017;-16
2022/05/16 10:33:46;;;;;;;9.55;7.55;;;36.00;41.30;;;;;;5055030;28;20182;-14
2022/05/16 10:36:33;;;;;;;12.30;8.43;;;36.10;40.60;;;;;;5055285;28;20028;-15
2022/05/16 10:39:20;;;;;;;9.32;6.47;;;36.40;39.40;;;;;;5054949;28;20029;-14
2022/05/16 10:42:04;;;;;;;12.32;8.90;;;36.60;39.80;;;;;;5055169;28;20115;-16
2022/05/16 10:44:53;;;;;;;8.95;6.82;;;36.80;39.00;;;;;;5054621;28;20437;-15
2022/05/16 10:47:44;;;;;;;14.05;9.93;;;36.90;38.50;;;;;;5055190;28;20393;-14
2022/05/16 10:50:21;;;;;;;11.55;7.93;;;36.80;38.50;;;;;;5054514;28;20041;-14
2022/05/16 10:53:12;;;;;;;9.60;7.18;;;36.20;39.80;;;;;;5054909;28;20021;-14
2022/05/16 10:56:03;;;;;;;10.93;8.10;;;35.70;41.00;;;;;;5036367;28;20021;-14
2022/05/16 10:58:51;;;;;;;11.18;8.68;;;35.40;41.00;;;;;;5054612;28;20033;-14
2022/05/16 11:01:29;;;;;;;12.57;8.55;;;35.60;41.30;;;;;;5055075;28;20108;-14
2022/05/16 11:04:00;;;;;;;14.88;9.70;;;36.20;40.00;;;;;;5054606;28;20040;-14
2022/05/16 11:06:41;;;;;;;12.15;7.88;;;36.70;38.60;;;;;;5054177;28;20033;-14
2022/05/16 11:09:15;;;;;;;17.88;10.52;;;37.00;39.00;;;;;;5036537;28;20025;-14
2022/05/16 11:11:59;;;;;;;16.02;9.50;;;37.40;37.00;;;;;;5037033;28;20045;-14
2022/05/16 11:14:38;;;;;;;12.32;9.38;;;37.50;37.70;;;;;;5053958;28;20029;-15
2022/05/16 11:17:36;;;;;;;10.45;8.20;;;37.70;37.50;;;;;;5054438;28;20028;-14
2022/05/16 11:20:15;;;;;;;12.65;9.57;;;38.00;36.70;;;;;;5049897;28;20054;-14
2022/05/16 11:22:53;;;;;;;14.38;10.95;;;38.20;36.60;;;;;;5053963;28;20029;-14
2022/05/16 11:25:19;;;;;;;11.05;8.27;;;38.40;36.20;;;;;;5054575;28;20508;-14
2022/05/16 11:28:04;;;;;;;13.73;8.93;;;38.50;36.40;;;;;;5054030;28;20029;-14
2022/05/16 11:30:47;;;;;;;11.18;8.43;;;38.30;35.00;;;;;;5053803;28;20032;-14
2022/05/16 11:33:36;;;;;;;10.75;8.00;;;37.90;36.10;;;;;;5054077;28;20539;-14
2022/05/16 11:36:26;;;;;;;10.93;8.75;;;37.90;37.20;;;;;;5053785;28;20033;-14
2022/05/16 11:39:10;;;;;;;9.55;6.90;;;38.40;36.60;;;;;;5022601;28;20028;-15
2022/05/16 11:41:47;;;;;;;12.55;8.52;;;38.90;35.80;;;;;;5054073;28;20036;-13
2022/05/16 11:44:55;;;;;;;10.32;8.13;;;39.00;34.90;;;;;;5053820;28;20551;-14
2022/05/16 11:47:29;;;;;;;9.88;7.57;;;38.80;35.10;;;;;;4992252;28;20045;-14
2022/05/16 11:50:05;;;;;;;13.32;9.65;;;38.70;35.20;;;;;;4992103;28;20026;-14
2022/05/16 11:52:53;;;;;;;10.77;8.50;;;38.70;35.00;;;;;;5029507;28;20435;-14
2022/05/16 12:01:00;;;;;;;14.45;9.00;;;39.40;33.70;;;;;;5053729;28;20075;-14
2022/05/16 12:03:42;;;;;;;16.52;10.65;;;39.20;33.80;;;;;;5053678;28;20048;-14
2022/05/16 12:06:37;;;;;;;11.10;9.10;;;38.60;34.20;;;;;;5053331;28;20032;-14
2022/05/16 12:09:17;;;;;;;15.55;9.52;;;37.50;35.80;;;;;;5053283;28;20358;-14
2022/05/16 12:12:08;;;;;;;11.50;9.55;;;37.10;37.00;;;;;;5053159;28;20393;-14
2022/05/16 12:14:36;;;;;;;12.30;8.95;;;37.10;36.70;;;;;;5052849;28;20035;-14
2022/05/16 12:17:08;;;;;;;10.25;8.38;;;37.00;37.50;;;;;;5053766;28;20546;-14
2022/05/16 12:19:37;;;;;;;10.40;8.40;;;36.90;36.50;;;;;;5053311;28;20025;-14
2022/05/16 12:22:08;;;;;;;11.55;8.75;;;37.00;36.50;;;;;;5053402;28;20029;-14
2022/05/16 12:24:42;;;;;;;16.10;9.85;;;37.50;35.90;;;;;;5052994;28;20079;-14
2022/05/16 12:27:14;;;;;;;15.00;10.18;;;37.80;34.80;;;;;;5053141;28;20057;-14
2022/05/16 12:29:52;;;;;;;11.25;8.57;;;37.80;35.30;;;;;;5053244;28;20029;-14
2022/05/16 12:32:44;;;;;;;13.25;11.38;;;37.70;35.80;;;;;;5053078;28;20041;-14
2022/05/16 12:35:11;;;;;;;15.23;10.18;;;37.30;35.80;;;;;;5043580;28;20439;-14
2022/05/16 12:37:41;;;;;;;13.85;10.00;;;36.60;37.10;;;;;;5053177;28;20440;-14
2022/05/16 12:40:08;;;;;;;13.55;9.32;;;36.20;37.60;;;;;;5053059;28;20013;-14
2022/05/16 12:42:48;;;;;;;10.30;8.80;;;36.00;37.80;;;;;;5052941;28;20100;-15
2022/05/16 12:45:43;;;;;;;14.10;9.90;;;36.00;37.80;;;;;;5053202;28;20150;-14
2022/05/16 12:48:42;;;;;;;14.57;10.20;;;36.40;37.70;;;;;;4991620;28;20382;-14
2022/05/16 12:51:22;;;;;;;15.35;9.73;;;36.80;36.90;;;;;;4991320;28;20054;-14
2022/05/16 12:54:08;;;;;;;14.98;10.77;;;37.00;36.40;;;;;;4991800;28;20042;-13
2022/05/16 12:56:52;;;;;;;12.95;9.70;;;37.40;36.00;;;;;;4991326;28;20117;-14
2022/05/16 12:59:47;;;;;;;16.02;10.10;;;37.20;35.50;;;;;;4991791;28;20053;-16
2022/05/16 13:02:22;;;;;;;13.55;10.40;;;36.80;36.10;;;;;;4991482;28;20031;-15
2022/05/16 13:04:59;;;;;;;13.00;10.32;;;36.60;36.30;;;;;;4991326;28;20109;-15
2022/05/16 13:07:47;;;;;;;16.05;9.57;;;36.80;36.50;;;;;;4991781;28;20037;-14
2022/05/16 13:10:34;;;;;;;11.23;9.00;;;37.20;36.00;;;;;;4991511;28;20537;-16
2022/05/16 13:13:32;;;;;;;11.63;7.20;;;37.20;35.70;;;;;;4972192;28;20402;-14
2022/05/16 13:16:16;;;;;;;11.60;7.57;;;36.90;37.20;;;;;;4991392;28;20029;-14
2022/05/16 13:19:06;;;;;;;11.35;7.55;;;37.00;38.90;;;;;;4991262;28;20406;-14
2022/05/16 13:21:41;;;;;;;9.82;6.60;;;37.40;37.60;;;;;;4981657;28;20521;-14
2022/05/16 13:24:13;;;;;;;13.02;7.40;;;37.40;37.70;;;;;;4992796;28;20023;-14
2022/05/16 13:29:33;;;;;;;12.05;6.95;;;37.40;37.50;;;;;;5052735;28;20167;-14
2022/05/16 13:32:16;;;;;;;11.38;6.88;;;37.30;38.20;;;;;;5052431;28;20037;-14